Aérodrome :
LOGIN :

S'inscrire | Disclaimer

   EN    FR    IT 

 










Légende :    VFR   VFR Marginal   IFR   IFR Intensif   IFR Très Intensif
Visi : 
Plafond : 
>= 8 km
>= 3000ft
5 à 8 km
1000 à 3000 ft
1500m à 5 km
500 à 1000 ft
800 à 1500m
200 à 500 ft
< 800m
< 200 ft
Symboles :   Orages  Brouillard  Fortes neiges  Fortes précipitations  Vent > 20 kt
SIGMETs :   Divers  Orages  Givrage  Turbulence  Onde Orograph.  Cendres Volcan.






- Altitude de l'aérodrome : 598 ft
- Code IATA : BQH


EGKB - Biggin Hill

DERNIER METAR :
  • 110920Z 26009KT 230V290 9999 SCT032 08/05 Q1004

METARs EXPIRÉS :
  • 110850Z 25010KT 230V290 9999 SCT035 08/05 Q1004
  • 110820Z 25010KT 230V290 9999 SCT035 08/05 Q1003
  • 110750Z 25010KT 220V280 9999 FEW015 08/05 Q1002
  • 110720Z 25007KT 200V290 CAVOK 08/06 Q1002
  • 110650Z 25009KT 210V280 9999 SCT037 08/06 Q1002
  • 110620Z 26010KT 230V290 9999 FEW020 BKN037 09/06 Q1001

TAF TAF EGKB
Valide du 11 à 09h jusqu'au 11 à 18h UTC


110758Z 1109/1118 26010KT 9999 SCT030



MET'MAP, la Météo Aéronautique d'un coup d'oeil ! - Copyright ORBIFLY Décembre 2007 - Disclaimer

ORBIFLY MET'MAP TEAM :

Programmation & Développement : Alexandra Zaïnal
Sur une idée originale de : Baudouin d'Aumeries
Soutien technique & logistique : Manuel Goepfert
Assistance : Marc-Olivier Méhu




SOURCES & CREDITS :

   NOAA